Terminal Aerodrome Forecast
Issued by NWS

Home | Current Version | Previous Version | Text Only | Print | Product List | Glossary On
Versions: 1 2 3 4 5 6 7 8 9 10 11 12 13 14 15 16 17 18 19 20 21 22 23 24 25 26 27 28 29 30 31 32 33 34 35 36 37 38 39 40 41 42 43 44
000
FTAK31 PANC 031511 AAB
TAFACD
TAF AMD
PACD 031511Z 0315/0412 26013KT 1 1/2SM -SHRA BR BKN003 OVC008
      TEMPO 0315/0319 3SM -RA BR SCT003 OVC012
     FM040400 27006KT P6SM VCSH SCT015 BKN025=

USA.gov is the U.S. government's official web portal to all federal, state and local government web resources and services.